createdAt,value
2022-10-31T00:01:02.547Z,81.36
2022-10-31T00:03:29.755Z,81.18
2022-10-31T00:05:56.830Z,81.51
2022-10-31T00:08:23.848Z,81.32
2022-10-31T00:10:50.890Z,81.28
2022-10-31T00:13:17.968Z,81.08
2022-10-31T00:15:45.421Z,81.13
2022-10-31T00:18:12.695Z,81.10
2022-10-31T00:20:40.271Z,81.22
2022-10-31T00:23:09.950Z,81.38
2022-10-31T00:25:41.717Z,81.53
2022-10-31T00:28:12.963Z,81.74
2022-10-31T00:30:40.257Z,82.25
2022-10-31T00:33:07.698Z,82.34
2022-10-31T00:35:35.545Z,83.11
2022-10-31T00:38:02.742Z,83.85
2022-10-31T00:40:29.796Z,84.31
2022-10-31T00:42:57.206Z,85.12
2022-10-31T00:45:24.539Z,85.64
2022-10-31T00:47:51.755Z,86.54
2022-10-31T00:50:18.671Z,86.67
2022-10-31T00:52:45.889Z,87.10
2022-10-31T00:55:12.883Z,88.09
2022-10-31T00:57:40.389Z,89.00
2022-10-31T01:00:08.355Z,89.24
2022-10-31T01:02:35.982Z,88.95
2022-10-31T01:05:02.906Z,88.91
2022-10-31T01:07:30.114Z,89.25
2022-10-31T01:09:57.050Z,89.31
2022-10-31T01:12:24.514Z,89.43
2022-10-31T01:14:51.493Z,89.15
2022-10-31T01:17:19.156Z,89.49
2022-10-31T01:19:47.599Z,89.34
2022-10-31T01:22:14.706Z,89.04
2022-10-31T01:24:41.876Z,89.24
2022-10-31T01:27:11.015Z,89.19
2022-10-31T01:29:38.727Z,89.19
2022-10-31T01:32:06.847Z,89.24
2022-10-31T01:34:34.837Z,89.06
2022-10-31T01:37:07.325Z,88.90
2022-10-31T01:39:36.675Z,88.43
2022-10-31T01:42:04.156Z,88.58
2022-10-31T01:44:31.504Z,88.50
2022-10-31T01:47:05.348Z,88.54
2022-10-31T01:49:37.462Z,88.89
2022-10-31T01:52:17.932Z,88.72
2022-10-31T01:54:54.241Z,88.94
2022-10-31T01:57:33.967Z,89.13
2022-10-31T02:00:07.700Z,89.36
2022-10-31T02:02:40.660Z,89.32
2022-10-31T02:05:13.689Z,89.26
2022-10-31T02:07:58.518Z,89.13
2022-10-31T02:10:31.742Z,89.23
2022-10-31T02:13:02.718Z,89.07
2022-10-31T02:15:31.156Z,88.67
2022-10-31T02:17:59.404Z,88.64
2022-10-31T02:20:32.384Z,88.36
2022-10-31T02:23:08.310Z,88.71
2022-10-31T02:26:03.269Z,88.55
2022-10-31T02:28:47.403Z,89.07
2022-10-31T02:31:36.130Z,89.15
2022-10-31T02:34:15.822Z,89.07
2022-10-31T02:36:56.055Z,89.46
2022-10-31T02:39:31.631Z,89.80
2022-10-31T02:42:15.476Z,90.36
2022-10-31T02:44:54.801Z,90.49
2022-10-31T02:47:30.826Z,91.45
2022-10-31T02:50:12.608Z,91.62
2022-10-31T02:52:40.025Z,92.19
2022-10-31T02:55:31.138Z,92.36
2022-10-31T02:58:08.313Z,92.44
2022-10-31T03:01:07.271Z,92.80
2022-10-31T03:03:59.231Z,93.19
2022-10-31T03:06:40.765Z,93.51
2022-10-31T03:09:39.717Z,93.66
2022-10-31T03:12:12.702Z,93.87
2022-10-31T03:15:02.859Z,94.19
2022-10-31T03:18:03.862Z,94.30
2022-10-31T03:20:41.622Z,94.37
2022-10-31T03:23:14.725Z,94.60
2022-10-31T03:25:43.309Z,94.60
2022-10-31T03:28:14.597Z,95.04
2022-10-31T03:30:45.450Z,95.21
2022-10-31T03:33:18.729Z,95.33
2022-10-31T03:35:52.170Z,95.52
2022-10-31T03:38:21.332Z,95.34
2022-10-31T03:40:51.298Z,94.85
2022-10-31T03:45:49.996Z,95.28
2022-10-31T03:48:21.480Z,95.56
2022-10-31T03:50:57.645Z,95.63
2022-10-31T03:53:32.370Z,95.82
2022-10-31T03:56:11.102Z,95.81
2022-10-31T03:58:46.540Z,95.73
2022-10-31T04:01:18.063Z,95.78
2022-10-31T04:03:46.240Z,96.03
2022-10-31T04:06:18.385Z,95.89
2022-10-31T04:09:12.117Z,95.14
2022-10-31T04:11:49.855Z,94.77
2022-10-31T04:14:36.718Z,94.48
2022-10-31T04:17:06.346Z,94.28
2022-10-31T04:19:37.481Z,94.09
2022-10-31T04:22:04.600Z,94.13
2022-10-31T04:24:31.704Z,94.27
2022-10-31T04:26:59.534Z,93.71
2022-10-31T04:29:27.442Z,94.22
2022-10-31T04:31:55.021Z,94.25
2022-10-31T04:34:22.346Z,94.44
2022-10-31T04:36:50.521Z,94.33
2022-10-31T04:39:22.678Z,94.31
2022-10-31T04:42:16.205Z,94.14
2022-10-31T04:44:43.372Z,93.99
2022-10-31T04:47:10.474Z,94.22
2022-10-31T04:49:37.835Z,94.23
2022-10-31T04:52:05.925Z,94.25
2022-10-31T04:54:33.739Z,94.38
2022-10-31T04:57:19.171Z,94.66
2022-10-31T04:59:47.238Z,94.92
2022-10-31T05:02:14.590Z,94.41
2022-10-31T05:04:54.975Z,94.46
2022-10-31T05:07:22.645Z,94.91
2022-10-31T05:09:49.808Z,95.08
2022-10-31T05:12:19.411Z,95.71
2022-10-31T05:15:07.064Z,95.88
2022-10-31T05:18:10.215Z,96.33
2022-10-31T05:20:56.092Z,96.96
2022-10-31T05:23:36.345Z,96.82
2022-10-31T05:26:05.887Z,96.99
2022-10-31T05:28:34.836Z,96.85
2022-10-31T05:31:03.285Z,96.76
2022-10-31T05:33:31.604Z,96.58
2022-10-31T05:36:17.135Z,96.81
2022-10-31T05:39:13.243Z,96.77
2022-10-31T05:41:43.254Z,97.04
2022-10-31T05:44:16.743Z,97.28
2022-10-31T05:47:09.961Z,97.53
2022-10-31T05:49:57.623Z,97.76
2022-10-31T05:52:43.857Z,97.30
2022-10-31T05:55:28.124Z,97.64
2022-10-31T05:58:04.488Z,97.63
2022-10-31T06:00:33.281Z,97.56
2022-10-31T06:05:55.369Z,97.67
2022-10-31T06:08:29.141Z,97.98
2022-10-31T06:10:58.701Z,97.42
2022-10-31T06:13:45.823Z,97.37
2022-10-31T06:16:37.254Z,97.31
2022-10-31T06:19:24.773Z,96.69
2022-10-31T06:21:52.496Z,95.97
2022-10-31T06:24:20.194Z,95.77
2022-10-31T06:27:01.689Z,95.57
2022-10-31T06:29:29.045Z,95.33
2022-10-31T06:32:12.910Z,95.03
2022-10-31T06:34:44.043Z,94.30
2022-10-31T06:37:14.320Z,93.63
2022-10-31T06:39:45.236Z,92.98
2022-10-31T06:42:17.442Z,92.21
2022-10-31T06:44:44.616Z,91.19
2022-10-31T06:47:30.247Z,90.22
2022-10-31T06:50:06.815Z,89.36
2022-10-31T06:52:35.016Z,88.63
2022-10-31T06:55:03.676Z,87.73
2022-10-31T06:57:32.358Z,86.63
2022-10-31T07:00:02.547Z,85.55
2022-10-31T07:02:42.880Z,84.48
2022-10-31T07:05:10.692Z,83.60
2022-10-31T07:07:37.758Z,82.44
2022-10-31T07:10:05.811Z,81.83
2022-10-31T07:12:57.114Z,81.13
2022-10-31T07:15:27.133Z,80.53
2022-10-31T07:17:55.329Z,79.54
2022-10-31T07:20:23.445Z,78.62
2022-10-31T07:22:52.406Z,77.90
2022-10-31T07:25:20.130Z,77.12
2022-10-31T07:28:06.171Z,75.80
2022-10-31T07:30:33.933Z,74.98
2022-10-31T07:33:02.163Z,74.17
2022-10-31T07:35:49.071Z,73.46
2022-10-31T07:38:20.980Z,72.67
2022-10-31T07:40:54.212Z,71.79
2022-10-31T07:43:21.481Z,71.44
2022-10-31T07:46:17.698Z,71.43
2022-10-31T07:49:20.921Z,71.18
2022-10-31T07:52:07.791Z,70.62
2022-10-31T07:54:53.585Z,69.96
2022-10-31T07:57:25.076Z,70.06
2022-10-31T07:59:56.206Z,69.92
2022-10-31T08:02:24.383Z,69.50
2022-10-31T08:05:10.126Z,69.26
2022-10-31T08:07:56.862Z,69.16
2022-10-31T08:10:25.906Z,68.96
2022-10-31T08:13:04.176Z,68.21
2022-10-31T08:15:35.073Z,67.95
2022-10-31T08:18:04.262Z,67.94
2022-10-31T08:20:33.067Z,67.39
2022-10-31T08:23:03.233Z,66.99
2022-10-31T08:25:38.551Z,67.05
2022-10-31T08:28:07.737Z,66.96
2022-10-31T08:30:37.011Z,66.53
2022-10-31T08:33:23.189Z,66.16
2022-10-31T08:36:10.568Z,65.64
2022-10-31T08:39:02.089Z,65.68
2022-10-31T08:41:34.230Z,65.25
2022-10-31T08:44:01.708Z,64.86
2022-10-31T08:46:29.138Z,65.01
2022-10-31T08:48:56.509Z,64.82
2022-10-31T08:51:24.715Z,64.67
2022-10-31T08:53:54.974Z,64.08
2022-10-31T08:56:36.804Z,63.87
2022-10-31T08:59:11.133Z,63.76
2022-10-31T09:01:55.385Z,63.73
2022-10-31T09:04:22.825Z,63.91
2022-10-31T09:07:19.771Z,63.81
2022-10-31T09:09:39.570Z,63.95
2022-10-31T09:12:09.766Z,63.98
2022-10-31T09:14:55.973Z,63.41
2022-10-31T09:17:35.554Z,63.26
2022-10-31T09:20:22.344Z,63.52
2022-10-31T09:22:58.232Z,63.66
2022-10-31T09:25:26.505Z,63.14
2022-10-31T09:28:15.949Z,62.38
2022-10-31T09:30:47.590Z,62.37
2022-10-31T09:33:20.278Z,62.09
2022-10-31T09:36:03.161Z,62.22
2022-10-31T09:38:31.315Z,62.08
2022-10-31T09:41:28.356Z,62.01
2022-10-31T09:44:11.093Z,61.92
2022-10-31T09:47:04.632Z,61.59
2022-10-31T09:49:53.659Z,61.21
2022-10-31T09:52:34.287Z,60.67
2022-10-31T09:55:17.458Z,60.54
2022-10-31T09:57:47.118Z,60.01
2022-10-31T10:00:21.717Z,60.06
2022-10-31T10:03:24.349Z,59.63
2022-10-31T10:06:05.653Z,59.12
2022-10-31T10:08:52.964Z,58.45
2022-10-31T10:12:49.773Z,58.37
2022-10-31T10:15:31.212Z,58.46
2022-10-31T10:18:05.029Z,58.02
2022-10-31T10:21:02.263Z,57.71
2022-10-31T10:23:49.386Z,57.39
2022-10-31T10:29:05.005Z,56.68
2022-10-31T10:31:37.988Z,56.20
2022-10-31T10:34:33.184Z,56.73
2022-10-31T10:37:10.206Z,56.40
2022-10-31T10:39:45.249Z,55.93
2022-10-31T10:42:34.288Z,55.65
2022-10-31T10:45:30.473Z,55.18
2022-10-31T10:48:22.063Z,55.49
2022-10-31T10:50:51.944Z,55.29
2022-10-31T10:54:00.373Z,55.38
2022-10-31T10:56:49.020Z,54.30
2022-10-31T10:59:21.522Z,54.76
2022-10-31T11:01:52.530Z,54.50
2022-10-31T11:04:23.209Z,54.15
2022-10-31T11:07:06.587Z,54.56
2022-10-31T11:09:35.863Z,54.91
2022-10-31T11:12:34.670Z,54.81
2022-10-31T11:15:09.829Z,55.41
2022-10-31T11:17:44.051Z,54.35
2022-10-31T11:20:17.913Z,54.50
2022-10-31T11:22:50.463Z,54.92
2022-10-31T11:25:20.536Z,54.90
2022-10-31T11:28:10.522Z,55.28
2022-10-31T11:30:50.676Z,55.15
2022-10-31T11:33:30.546Z,55.26
2022-10-31T11:35:59.248Z,54.74
2022-10-31T11:38:37.251Z,54.23
2022-10-31T11:41:16.099Z,54.07
2022-10-31T11:43:52.183Z,54.11
2022-10-31T11:46:24.887Z,54.29
2022-10-31T11:48:55.557Z,53.79
2022-10-31T11:51:29.884Z,53.81
2022-10-31T11:54:02.763Z,53.84
2022-10-31T11:56:42.776Z,53.77
2022-10-31T11:59:38.826Z,54.09
2022-10-31T12:02:20.399Z,53.95
2022-10-31T12:04:54.374Z,54.41
2022-10-31T12:07:24.261Z,54.07
2022-10-31T12:09:52.271Z,53.57
2022-10-31T12:12:44.772Z,53.56
2022-10-31T12:15:28.891Z,53.11
2022-10-31T12:18:26.944Z,53.47
2022-10-31T12:21:10.392Z,53.21
2022-10-31T12:23:44.335Z,53.41
2022-10-31T12:26:45.216Z,53.46
2022-10-31T12:29:35.492Z,53.25
2022-10-31T12:32:02.741Z,53.38
2022-10-31T12:35:03.792Z,53.03
2022-10-31T12:37:49.830Z,52.62
2022-10-31T12:40:32.147Z,53.12
2022-10-31T12:43:33.372Z,53.26
2022-10-31T12:46:03.506Z,52.65
2022-10-31T12:48:36.494Z,52.67
2022-10-31T12:51:17.601Z,52.58
2022-10-31T12:53:50.690Z,52.34
2022-10-31T12:56:30.947Z,52.13
2022-10-31T12:59:10.045Z,52.24
2022-10-31T13:02:00.167Z,52.23
2022-10-31T13:04:36.800Z,52.60
2022-10-31T13:07:15.497Z,52.38
2022-10-31T13:10:00.726Z,52.53
2022-10-31T13:12:33.394Z,52.84
2022-10-31T13:15:17.773Z,52.45
2022-10-31T13:17:49.966Z,52.35
2022-10-31T13:20:29.926Z,52.75
2022-10-31T13:23:48.597Z,52.65
2022-10-31T13:26:35.861Z,53.14
2022-10-31T13:29:32.680Z,52.85
2022-10-31T13:32:05.765Z,52.80
2022-10-31T13:34:39.832Z,52.69
2022-10-31T13:37:18.934Z,52.71
2022-10-31T13:40:10.797Z,52.59
2022-10-31T13:42:52.409Z,53.19
2022-10-31T13:45:23.001Z,53.08
2022-10-31T13:48:18.413Z,52.78
2022-10-31T13:51:05.574Z,52.96
2022-10-31T13:53:55.899Z,53.23
2022-10-31T13:56:27.750Z,53.52
2022-10-31T13:59:11.895Z,53.57
2022-10-31T14:01:52.254Z,53.78
2022-10-31T14:04:25.570Z,53.76
2022-10-31T14:07:22.328Z,53.56
2022-10-31T14:09:54.444Z,54.24
2022-10-31T14:12:37.873Z,54.11
2022-10-31T14:15:22.694Z,54.28
2022-10-31T14:17:54.953Z,53.98
2022-10-31T14:20:44.192Z,53.94
2022-10-31T14:23:42.043Z,54.17
2022-10-31T14:26:27.296Z,54.66
2022-10-31T14:29:00.440Z,54.72
2022-10-31T14:31:38.281Z,55.20
2022-10-31T14:34:23.774Z,55.32
2022-10-31T14:37:08.062Z,55.84
2022-10-31T14:39:54.063Z,55.87
2022-10-31T14:42:37.171Z,56.47
2022-10-31T14:45:30.109Z,56.49
2022-10-31T14:48:25.885Z,57.36
2022-10-31T14:50:56.152Z,57.46
2022-10-31T14:53:46.725Z,57.63
2022-10-31T14:56:22.860Z,57.62
2022-10-31T14:58:50.814Z,58.13
2022-10-31T15:01:41.177Z,58.14
2022-10-31T15:04:24.199Z,58.55
2022-10-31T15:07:07.379Z,59.16
2022-10-31T15:09:36.393Z,60.19
2022-10-31T15:12:26.695Z,60.30
2022-10-31T15:14:54.753Z,61.40
2022-10-31T15:17:23.551Z,61.75
2022-10-31T15:19:52.091Z,62.09
2022-10-31T15:22:21.836Z,62.88
2022-10-31T15:24:50.300Z,63.17
2022-10-31T15:27:19.068Z,63.76
2022-10-31T15:29:51.695Z,64.00
2022-10-31T15:32:27.535Z,64.59
2022-10-31T15:35:01.737Z,64.83
2022-10-31T15:37:29.984Z,65.08
2022-10-31T15:39:56.992Z,66.39
2022-10-31T15:42:26.255Z,66.43
2022-10-31T15:45:02.815Z,66.56
2022-10-31T15:47:33.120Z,67.13
2022-10-31T15:50:01.696Z,67.51
2022-10-31T15:52:48.159Z,67.89
2022-10-31T15:55:17.039Z,68.28
2022-10-31T15:57:48.430Z,67.75
2022-10-31T16:00:28.570Z,68.22
2022-10-31T16:03:21.000Z,68.10
2022-10-31T16:05:54.021Z,68.59
2022-10-31T16:08:40.456Z,68.82
2022-10-31T16:11:07.556Z,69.08
2022-10-31T16:13:42.682Z,69.66
2022-10-31T16:16:34.073Z,70.03
2022-10-31T16:19:04.635Z,70.67
2022-10-31T16:21:38.262Z,70.96
2022-10-31T16:24:27.054Z,71.27
2022-10-31T16:26:59.021Z,71.64
2022-10-31T16:29:46.072Z,71.87
2022-10-31T16:32:36.161Z,72.36
2022-10-31T16:35:20.324Z,72.89
2022-10-31T16:37:47.465Z,73.16
2022-10-31T16:40:15.770Z,73.80
2022-10-31T16:42:44.409Z,73.81
2022-10-31T16:45:28.093Z,73.90
2022-10-31T16:48:03.733Z,74.28
2022-10-31T16:50:31.343Z,74.51
2022-10-31T16:53:13.426Z,74.88
2022-10-31T16:55:52.009Z,75.46
2022-10-31T16:58:24.377Z,75.63
2022-10-31T17:00:52.751Z,76.11
2022-10-31T17:03:20.919Z,76.40
2022-10-31T17:05:48.058Z,76.61
2022-10-31T17:08:15.617Z,77.18
2022-10-31T17:10:45.188Z,77.52
2022-10-31T17:13:19.670Z,77.71
2022-10-31T17:15:50.813Z,77.63
2022-10-31T17:18:21.652Z,78.24
2022-10-31T17:21:00.259Z,78.50
2022-10-31T17:23:28.451Z,78.79
2022-10-31T17:25:58.482Z,78.87
2022-10-31T17:28:29.764Z,78.89
2022-10-31T17:30:59.500Z,79.02
2022-10-31T17:33:27.195Z,78.98
2022-10-31T17:35:54.604Z,79.00
2022-10-31T17:38:21.856Z,79.28
2022-10-31T17:43:21.053Z,79.26
2022-10-31T17:45:48.226Z,78.99
2022-10-31T17:48:15.093Z,79.19
2022-10-31T17:50:42.314Z,79.13
2022-10-31T17:53:09.391Z,79.02
2022-10-31T17:55:37.719Z,79.39
2022-10-31T17:58:05.603Z,79.54
2022-10-31T18:00:33.114Z,79.46
2022-10-31T18:03:04.000Z,79.59
2022-10-31T18:05:32.870Z,79.56
2022-10-31T18:08:03.748Z,79.76
2022-10-31T18:10:32.013Z,80.11
2022-10-31T18:12:59.474Z,80.12
2022-10-31T18:15:26.795Z,79.86
2022-10-31T18:17:53.706Z,79.89
2022-10-31T18:20:20.888Z,79.80
2022-10-31T18:22:48.013Z,80.00
2022-10-31T18:25:14.920Z,80.35
2022-10-31T18:27:42.047Z,80.48
2022-10-31T18:30:09.487Z,80.80
2022-10-31T18:32:36.744Z,80.67
2022-10-31T18:35:04.575Z,80.64
2022-10-31T18:37:31.873Z,80.81
2022-10-31T18:39:58.911Z,81.25
2022-10-31T18:42:26.224Z,81.16
2022-10-31T18:44:53.200Z,81.30
2022-10-31T18:47:20.478Z,81.33
2022-10-31T18:49:47.606Z,81.69
2022-10-31T18:52:14.713Z,81.69
2022-10-31T18:54:41.880Z,81.93
2022-10-31T18:57:09.065Z,81.86
2022-10-31T18:59:35.970Z,81.71
2022-10-31T19:02:03.358Z,82.11
2022-10-31T19:04:30.409Z,81.88
2022-10-31T19:06:57.771Z,82.03
2022-10-31T19:09:25.994Z,82.03
2022-10-31T19:11:52.972Z,81.95
2022-10-31T19:14:20.302Z,81.80
2022-10-31T19:16:47.292Z,82.29
2022-10-31T19:19:14.440Z,82.60
2022-10-31T19:21:41.465Z,82.68
2022-10-31T19:24:09.741Z,82.83
2022-10-31T19:26:36.859Z,83.11
2022-10-31T19:29:03.978Z,83.03
2022-10-31T19:31:31.229Z,83.02
2022-10-31T19:33:58.209Z,83.42
2022-10-31T19:36:26.788Z,83.31
2022-10-31T19:38:54.069Z,83.57
2022-10-31T19:41:26.005Z,83.55
2022-10-31T19:43:54.048Z,83.44
2022-10-31T19:46:40.458Z,83.38
2022-10-31T19:49:11.116Z,83.54
2022-10-31T19:51:38.193Z,83.71
2022-10-31T19:54:05.962Z,83.59
2022-10-31T19:56:32.826Z,83.87
2022-10-31T19:59:00.070Z,84.27
2022-10-31T20:01:27.834Z,84.11
2022-10-31T20:03:54.868Z,84.43
2022-10-31T20:06:29.429Z,84.52
2022-10-31T20:08:56.566Z,84.59
2022-10-31T20:11:25.613Z,85.02
2022-10-31T20:13:55.382Z,85.22
2022-10-31T20:16:22.464Z,85.83
2022-10-31T20:18:49.437Z,86.03
2022-10-31T20:21:23.302Z,85.91
2022-10-31T20:23:54.732Z,86.13
2022-10-31T20:26:21.858Z,86.22
2022-10-31T20:28:49.350Z,86.11
2022-10-31T20:31:20.163Z,86.04
2022-10-31T20:33:49.417Z,85.86
2022-10-31T20:36:21.278Z,86.47
2022-10-31T20:38:48.832Z,86.55
2022-10-31T20:41:17.589Z,86.58
2022-10-31T20:43:45.665Z,86.84
2022-10-31T20:46:25.102Z,86.94
2022-10-31T20:48:53.531Z,86.84
2022-10-31T20:51:27.573Z,86.73
2022-10-31T20:53:56.522Z,87.16
2022-10-31T20:56:26.371Z,87.35
2022-10-31T20:58:56.315Z,87.37
2022-10-31T21:01:29.349Z,87.33
2022-10-31T21:04:00.216Z,86.81
2022-10-31T21:06:28.286Z,86.76
2022-10-31T21:08:56.394Z,87.03
2022-10-31T21:11:26.233Z,86.64
2022-10-31T21:13:54.455Z,86.63
2022-10-31T21:16:28.031Z,86.85
2022-10-31T21:18:55.597Z,87.25
2022-10-31T21:21:29.015Z,87.63
2022-10-31T21:24:03.906Z,87.75
2022-10-31T21:26:35.029Z,87.68
2022-10-31T21:29:03.847Z,87.91
2022-10-31T21:31:31.482Z,88.08
2022-10-31T21:33:58.802Z,88.34
2022-10-31T21:36:26.394Z,88.82
2022-10-31T21:38:54.645Z,88.99
2022-10-31T21:41:22.468Z,88.87
2022-10-31T21:43:51.662Z,88.96
2022-10-31T21:46:23.920Z,88.82
2022-10-31T21:48:51.136Z,89.59
2022-10-31T21:51:21.154Z,89.73
2022-10-31T21:54:07.606Z,89.95
2022-10-31T21:56:35.023Z,89.79
2022-10-31T21:59:02.581Z,89.45
2022-10-31T22:01:29.949Z,89.50
2022-10-31T22:03:58.688Z,89.52
2022-10-31T22:06:27.008Z,89.51
2022-10-31T22:08:54.988Z,89.72
2022-10-31T22:11:22.254Z,90.27
2022-10-31T22:13:50.410Z,90.36
2022-10-31T22:16:20.343Z,90.38
2022-10-31T22:18:47.964Z,90.39
2022-10-31T22:21:18.540Z,90.47
2022-10-31T22:23:51.516Z,90.31
2022-10-31T22:26:18.928Z,90.12
2022-10-31T22:28:48.194Z,90.41
2022-10-31T22:31:20.541Z,90.26
2022-10-31T22:33:49.167Z,90.11
2022-10-31T22:36:22.230Z,89.91
2022-10-31T22:38:49.565Z,89.75
2022-10-31T22:41:25.595Z,90.23
2022-10-31T22:43:56.744Z,90.44
2022-10-31T22:46:32.989Z,90.77
2022-10-31T22:49:02.411Z,90.85
2022-10-31T22:51:32.927Z,90.59
2022-10-31T22:54:00.444Z,90.27
2022-10-31T22:56:32.968Z,90.38
2022-10-31T22:59:01.358Z,90.42
2022-10-31T23:01:30.862Z,90.21
2022-10-31T23:03:58.252Z,90.38
2022-10-31T23:06:27.869Z,90.69
2022-10-31T23:08:54.857Z,91.18
2022-10-31T23:11:26.353Z,91.00
2022-10-31T23:14:10.069Z,92.23
2022-10-31T23:16:51.230Z,92.40
2022-10-31T23:19:20.505Z,92.21
2022-10-31T23:21:56.692Z,92.57
2022-10-31T23:24:40.054Z,92.69
2022-10-31T23:27:11.779Z,92.65
2022-10-31T23:29:44.912Z,92.49
2022-10-31T23:32:16.398Z,92.53
2022-10-31T23:34:44.373Z,92.71
2022-10-31T23:37:12.264Z,92.61
2022-10-31T23:39:39.506Z,92.46
2022-10-31T23:42:06.628Z,92.89
2022-10-31T23:44:33.741Z,92.72
2022-10-31T23:47:01.171Z,93.14
2022-10-31T23:49:29.515Z,92.93
2022-10-31T23:51:59.499Z,92.53
2022-10-31T23:54:27.453Z,92.95
2022-10-31T23:56:54.849Z,92.51
2022-10-31T23:59:22.952Z,92.65
